Time;durP1;ratioP1;P1;durP2;ratioP2;P2;SDS_P1;SDS_P2;PMS_P1;PMS_P2;Temp;Humidity;BMP_temperature;BMP_pressure;BME280_temperature;BME280_humidity;BME280_pressure;Samples;Min_cycle;Max_cycle;Signal;HPM_P1;HPM_P2
2023/07/11 00:00:35;;;;;;;7.95;4.93;;;;;;;25.83;93.70;96507.22;5018148;28;20024;-82
2023/07/11 00:03:01;;;;;;;8.30;4.85;;;;;;;25.67;95.46;96510.72;5020167;28;20025;-82
2023/07/11 00:05:27;;;;;;;7.25;5.00;;;;;;;25.39;96.89;96513.31;5026888;28;20047;-82
2023/07/11 00:07:52;;;;;;;6.95;4.65;;;;;;;24.77;100.00;96513.31;5018051;28;20029;-82
2023/07/11 00:10:19;;;;;;;9.38;5.68;;;;;;;24.41;100.00;96525.28;5025693;28;20039;-82
2023/07/11 00:12:45;;;;;;;8.05;5.40;;;;;;;24.56;100.00;96509.47;5018249;28;20610;-81
2023/07/11 00:15:13;;;;;;;9.45;5.82;;;;;;;24.77;100.00;96507.13;5046703;28;20024;-82
2023/07/11 00:17:39;;;;;;;10.80;5.72;;;;;;;25.04;100.00;96508.13;5020698;28;20442;-81
2023/07/11 00:20:08;;;;;;;8.02;5.35;;;;;;;25.28;99.49;96503.44;5018536;28;20083;-82
2023/07/11 00:22:34;;;;;;;8.50;5.18;;;;;;;24.79;100.00;96502.34;5004026;28;20032;-82
2023/07/11 00:25:00;;;;;;;8.18;5.22;;;;;;;24.69;100.00;96498.41;5032622;28;20017;-82
2023/07/11 00:27:25;;;;;;;9.48;5.47;;;;;;;25.11;100.00;96500.75;5009788;28;20025;-82
2023/07/11 00:29:52;;;;;;;8.00;5.32;;;;;;;25.00;100.00;96498.94;5019276;28;20021;-82
2023/07/11 00:32:18;;;;;;;8.60;5.85;;;;;;;25.02;100.00;96499.50;5017093;28;20024;-81
2023/07/11 00:34:44;;;;;;;10.93;5.80;;;;;;;24.94;100.00;96495.31;5013564;28;20618;-82
2023/07/11 00:37:14;;;;;;;8.00;5.30;;;;;;;24.89;100.00;96491.75;5031211;28;20101;-82
2023/07/11 00:39:40;;;;;;;12.30;6.20;;;;;;;24.63;100.00;96498.56;5018296;28;20041;-82
2023/07/11 00:42:08;;;;;;;10.95;6.20;;;;;;;24.62;100.00;96491.56;5030306;28;20060;-82
2023/07/11 00:45:25;;;;;;;9.15;6.00;;;;;;;24.76;100.00;96497.44;5031365;28;20689;-82
2023/07/11 00:47:51;;;;;;;10.88;6.88;;;;;;;24.66;100.00;96495.38;4992627;28;20033;-82
2023/07/11 00:50:17;;;;;;;11.25;7.07;;;;;;;24.57;100.00;96492.25;5015842;28;20040;-82
2023/07/11 00:52:42;;;;;;;9.23;5.88;;;;;;;24.44;100.00;96497.94;5011668;28;20060;-82
2023/07/11 00:55:12;;;;;;;7.45;5.78;;;;;;;24.67;100.00;96494.31;5007788;28;20391;-82
2023/07/11 00:57:40;;;;;;;9.85;6.75;;;;;;;24.62;100.00;96483.50;5032237;28;20016;-82
2023/07/11 01:00:10;;;;;;;9.40;6.80;;;;;;;24.61;100.00;96482.66;5014830;28;20053;-82
2023/07/11 01:02:35;;;;;;;11.77;7.35;;;;;;;24.61;100.00;96476.47;5033083;28;20029;-82
2023/07/11 01:05:03;;;;;;;9.82;6.32;;;;;;;24.52;100.00;96476.06;5026165;28;20054;-82
2023/07/11 01:07:35;;;;;;;11.65;6.70;;;;;;;24.51;100.00;96479.78;5033335;28;20522;-82
2023/07/11 01:10:01;;;;;;;9.65;6.38;;;;;;;24.29;100.00;96481.50;5016527;28;20830;-82
2023/07/11 01:12:29;;;;;;;10.25;5.95;;;;;;;24.35;100.00;96476.00;5027947;28;20051;-82
2023/07/11 01:14:54;;;;;;;10.18;6.28;;;;;;;24.19;100.00;96474.06;5006304;28;20483;-82
2023/07/11 01:17:31;;;;;;;11.15;5.85;;;;;;;24.17;100.00;96471.59;5019318;28;20053;-82
2023/07/11 01:19:59;;;;;;;10.30;6.47;;;;;;;24.33;100.00;96463.84;5044298;28;20115;-82
2023/07/11 01:22:28;;;;;;;9.20;5.75;;;;;;;24.25;100.00;96458.88;5019303;28;20020;-81
2023/07/11 01:24:56;;;;;;;12.10;6.43;;;;;;;24.26;100.00;96455.13;5006442;28;20391;-82
2023/07/11 01:27:32;;;;;;;9.10;6.13;;;;;;;24.12;100.00;96460.78;5006426;28;20021;-82
2023/07/11 01:30:03;;;;;;;10.50;6.57;;;;;;;24.08;100.00;96459.63;5009158;28;20557;-82
2023/07/11 01:32:29;;;;;;;10.55;6.05;;;;;;;24.02;100.00;96455.19;5025290;28;20025;-81
2023/07/11 01:34:54;;;;;;;9.60;5.95;;;;;;;24.20;100.00;96452.31;5021792;28;20537;-82
2023/07/11 01:37:21;;;;;;;8.38;5.63;;;;;;;24.04;100.00;96452.25;5010083;28;20021;-82
2023/07/11 01:39:47;;;;;;;11.07;5.60;;;;;;;24.10;100.00;96452.13;5015821;28;20068;-81
2023/07/11 01:42:12;;;;;;;9.48;5.85;;;;;;;24.22;100.00;96454.78;5012930;28;20124;-82
2023/07/11 01:44:38;;;;;;;8.95;6.20;;;;;;;24.43;100.00;96445.25;5013423;28;20032;-82
2023/07/11 01:47:05;;;;;;;8.55;5.38;;;;;;;24.16;100.00;96442.31;5007208;28;20035;-82
2023/07/11 01:49:31;;;;;;;8.50;5.85;;;;;;;23.86;100.00;96446.03;5028775;28;20389;-82
2023/07/11 01:52:15;;;;;;;9.68;6.18;;;;;;;23.74;100.00;96442.53;5032093;28;20037;-82
2023/07/11 01:54:41;;;;;;;9.05;5.78;;;;;;;23.77;100.00;96447.44;5039433;28;20115;-82
2023/07/11 01:57:08;;;;;;;9.07;4.97;;;;;;;23.68;100.00;96438.94;5005087;28;20045;-82
2023/07/11 01:59:35;;;;;;;8.65;5.47;;;;;;;23.36;100.00;96441.19;5013975;28;20025;-82
2023/07/11 02:02:01;;;;;;;9.18;6.20;;;;;;;23.53;100.00;96438.59;5021220;28;21355;-82
2023/07/11 02:04:27;;;;;;;9.65;5.93;;;;;;;23.53;100.00;96439.41;5006184;28;20026;-82
2023/07/11 02:06:52;;;;;;;8.43;4.93;;;;;;;23.24;100.00;96443.88;5029147;28;20025;-82
2023/07/11 02:09:19;;;;;;;7.90;5.18;;;;;;;23.22;100.00;96437.13;5000892;28;20475;-82
2023/07/11 02:11:46;;;;;;;8.95;5.85;;;;;;;23.23;100.00;96434.19;5010637;28;20053;-82
2023/07/11 02:14:13;;;;;;;9.70;5.68;;;;;;;23.52;100.00;96434.28;5020380;28;20032;-82
2023/07/11 02:16:39;;;;;;;9.27;4.97;;;;;;;23.63;100.00;96430.75;5029413;28;20078;-81
2023/07/11 02:19:05;;;;;;;10.15;5.20;;;;;;;23.58;100.00;96433.34;5028665;28;20021;-82
2023/07/11 02:21:31;;;;;;;8.98;5.72;;;;;;;23.59;100.00;96440.34;5002885;28;20087;-82
2023/07/11 02:23:57;;;;;;;8.05;5.15;;;;;;;23.65;100.00;96436.72;5009065;28;20040;-82
2023/07/11 02:26:26;;;;;;;8.38;5.20;;;;;;;23.70;100.00;96434.16;5039039;28;20021;-82
2023/07/11 02:28:51;;;;;;;8.15;5.63;;;;;;;23.62;100.00;96428.31;5008305;28;20045;-82
2023/07/11 02:31:17;;;;;;;8.40;4.88;;;;;;;23.53;100.00;96427.84;5011457;28;20028;-82
2023/07/11 02:33:42;;;;;;;7.45;4.78;;;;;;;23.37;100.00;96421.34;5025835;28;20029;-81
2023/07/11 02:36:08;;;;;;;9.05;5.10;;;;;;;23.39;100.00;96424.59;5007715;28;20028;-82
2023/07/11 02:38:33;;;;;;;7.97;4.63;;;;;;;23.27;100.00;96423.78;5020160;28;20017;-82
2023/07/11 02:41:30;;;;;;;8.35;5.05;;;;;;;23.21;100.00;96412.16;5025873;28;20054;-82
2023/07/11 02:44:06;;;;;;;10.10;5.38;;;;;;;23.39;100.00;96415.75;5018979;28;20025;-82
2023/07/11 02:46:31;;;;;;;7.30;4.55;;;;;;;23.32;100.00;96415.06;5018029;28;20733;-82
2023/07/11 02:48:57;;;;;;;7.85;4.40;;;;;;;23.25;100.00;96410.63;5027474;28;20021;-82
2023/07/11 02:51:24;;;;;;;12.25;5.45;;;;;;;23.23;100.00;96420.78;5025459;28;20037;-82
2023/07/11 02:53:50;;;;;;;9.63;5.05;;;;;;;23.18;100.00;96422.53;5006158;28;20371;-81
2023/07/11 02:56:18;;;;;;;8.20;4.88;;;;;;;23.34;100.00;96412.94;5039955;28;20017;-82
2023/07/11 02:58:44;;;;;;;11.10;4.50;;;;;;;23.14;100.00;96413.31;5007016;28;20403;-81
2023/07/11 03:01:10;;;;;;;7.78;4.60;;;;;;;23.32;100.00;96413.19;5021994;28;20025;-82
2023/07/11 03:03:36;;;;;;;8.40;4.47;;;;;;;23.22;100.00;96418.34;5026265;28;20467;-82
2023/07/11 03:06:01;;;;;;;7.35;4.65;;;;;;;23.32;100.00;96410.50;5005444;28;20509;-82
2023/07/11 03:08:27;;;;;;;8.80;4.90;;;;;;;23.20;100.00;96413.19;5022076;28;20483;-82
2023/07/11 03:10:56;;;;;;;7.50;4.53;;;;;;;23.08;100.00;96411.59;5024631;28;20368;-82
2023/07/11 03:13:22;;;;;;;6.93;4.28;;;;;;;23.25;100.00;96402.59;5027984;28;20021;-82
2023/07/11 03:15:48;;;;;;;9.98;4.82;;;;;;;23.19;100.00;96402.69;5008208;28;20040;-82
2023/07/11 03:18:14;;;;;;;8.20;5.25;;;;;;;23.01;100.00;96400.97;5005774;28;20040;-81
2023/07/11 03:20:41;;;;;;;9.98;5.38;;;;;;;22.77;100.00;96406.28;5029964;28;20070;-82
2023/07/11 03:23:08;;;;;;;8.48;4.90;;;;;;;23.10;100.00;96398.72;5021239;28;20112;-82
2023/07/11 03:25:35;;;;;;;11.63;4.72;;;;;;;22.97;100.00;96406.00;5012365;28;20378;-82
2023/07/11 03:28:00;;;;;;;9.27;4.78;;;;;;;22.98;100.00;96388.84;5034521;28;20028;-82
2023/07/11 03:30:26;;;;;;;7.25;4.68;;;;;;;23.25;100.00;96394.53;5030347;28;20088;-82
2023/07/11 03:32:52;;;;;;;6.65;4.20;;;;;;;23.25;100.00;96394.53;5012069;28;20036;-82
2023/07/11 03:35:18;;;;;;;8.10;4.75;;;;;;;23.51;100.00;96395.88;5030758;28;20148;-82
2023/07/11 03:37:47;;;;;;;8.68;4.80;;;;;;;23.34;100.00;96391.47;5011006;28;20402;-82
2023/07/11 03:40:13;;;;;;;7.72;4.93;;;;;;;23.15;100.00;96390.81;5008906;28;20024;-81
2023/07/11 03:42:38;;;;;;;8.63;4.88;;;;;;;22.92;100.00;96392.41;5008559;28;20044;-82
2023/07/11 03:45:05;;;;;;;8.23;5.32;;;;;;;22.76;100.00;96387.75;5030593;28;20025;-82
2023/07/11 03:47:31;;;;;;;8.88;5.43;;;;;;;22.89;100.00;96390.19;5031540;28;20032;-81
2023/07/11 03:49:56;;;;;;;7.78;4.57;;;;;;;23.21;100.00;96385.31;5031579;28;20033;-82
2023/07/11 03:52:22;;;;;;;9.85;5.03;;;;;;;23.29;100.00;96395.69;5011777;28;20021;-82
2023/07/11 03:54:47;;;;;;;8.65;4.85;;;;;;;23.41;100.00;96386.81;5011643;28;20105;-83
2023/07/11 03:57:13;;;;;;;9.05;4.78;;;;;;;23.18;100.00;96382.31;5019771;28;20025;-83
2023/07/11 03:59:38;;;;;;;8.30;4.68;;;;;;;23.17;100.00;96386.00;5032666;28;20029;-83
2023/07/11 04:02:04;;;;;;;8.85;4.93;;;;;;;23.22;100.00;96378.91;5018683;28;20021;-82
2023/07/11 04:04:30;;;;;;;9.10;5.00;;;;;;;23.46;100.00;96378.84;5027796;28;20100;-82
2023/07/11 04:06:56;;;;;;;11.45;5.07;;;;;;;23.26;100.00;96381.94;5016209;28;20080;-82
2023/07/11 04:09:22;;;;;;;11.85;5.78;;;;;;;23.02;100.00;96381.94;5025821;28;20026;-83
2023/07/11 04:11:48;;;;;;;9.88;5.70;;;;;;;22.92;100.00;96376.31;5032283;28;20033;-82
2023/07/11 04:14:14;;;;;;;7.85;5.10;;;;;;;23.07;100.00;96378.56;5010883;28;20040;-82
2023/07/11 04:16:40;;;;;;;7.57;5.28;;;;;;;22.59;100.00;96368.84;5028264;28;20025;-82
2023/07/11 04:19:06;;;;;;;10.93;5.20;;;;;;;22.79;100.00;96369.31;5012181;28;20029;-82
2023/07/11 04:21:32;;;;;;;7.03;4.57;;;;;;;22.99;100.00;96376.25;5018835;28;20041;-81
2023/07/11 04:23:58;;;;;;;9.57;5.05;;;;;;;23.21;100.00;96371.91;5015371;28;20037;-80
2023/07/11 04:26:23;;;;;;;7.80;5.00;;;;;;;23.29;100.00;96371.53;5042707;28;20062;-81
2023/07/11 04:28:49;;;;;;;8.43;5.25;;;;;;;22.95;100.00;96372.41;5024494;28;20029;-81
2023/07/11 04:31:14;;;;;;;9.13;5.20;;;;;;;22.95;100.00;96370.53;5049370;28;20135;-81
2023/07/11 04:33:40;;;;;;;8.20;5.10;;;;;;;23.36;100.00;96371.41;5034784;28;20033;-81
2023/07/11 04:36:08;;;;;;;8.05;4.88;;;;;;;23.44;100.00;96372.91;5009657;28;20524;-81
2023/07/11 04:38:34;;;;;;;9.45;5.65;;;;;;;23.56;100.00;96379.06;5035094;28;20402;-81
2023/07/11 04:41:08;;;;;;;8.88;5.32;;;;;;;23.61;100.00;96372.97;5026451;28;20025;-81
2023/07/11 04:43:34;;;;;;;7.97;5.30;;;;;;;23.39;100.00;96378.16;5010742;28;20020;-82
2023/07/11 04:46:01;;;;;;;10.45;5.65;;;;;;;23.57;100.00;96371.81;5026552;28;20033;-81
2023/07/11 04:48:26;;;;;;;9.10;5.18;;;;;;;23.64;100.00;96369.81;5051895;28;20812;-81
2023/07/11 04:50:57;;;;;;;8.00;5.53;;;;;;;23.39;100.00;96367.44;5033180;28;20037;-81
2023/07/11 04:53:23;;;;;;;9.30;5.15;;;;;;;23.28;100.00;96375.28;5006318;28;20442;-81
2023/07/11 04:55:57;;;;;;;8.43;4.82;;;;;;;23.36;100.00;96366.03;5022459;28;20137;-81
2023/07/11 04:58:24;;;;;;;8.60;5.93;;;;;;;23.43;100.00;96371.28;5007351;28;20113;-81
2023/07/11 05:00:50;;;;;;;8.98;4.90;;;;;;;23.66;100.00;96360.47;5023729;28;20021;-82
2023/07/11 05:03:17;;;;;;;9.43;5.07;;;;;;;23.34;100.00;96362.78;5025278;28;20127;-81
2023/07/11 05:05:47;;;;;;;8.50;4.97;;;;;;;23.64;100.00;96356.38;5020734;28;20503;-81
2023/07/11 05:08:12;;;;;;;8.00;4.80;;;;;;;23.66;100.00;96365.03;5028047;28;20025;-81
2023/07/11 05:10:50;;;;;;;8.98;4.57;;;;;;;24.13;100.00;96354.91;5007083;28;20623;-81
2023/07/11 05:13:15;;;;;;;9.32;5.15;;;;;;;23.82;100.00;96353.56;5031756;28;20017;-82
2023/07/11 05:15:41;;;;;;;8.93;5.07;;;;;;;23.94;100.00;96358.88;5033836;28;20028;-81
2023/07/11 05:18:06;;;;;;;8.27;4.93;;;;;;;23.76;100.00;96352.63;5016751;28;20021;-81
2023/07/11 05:20:32;;;;;;;8.30;4.47;;;;;;;24.32;100.00;96352.84;5014863;28;20020;-81
2023/07/11 05:22:57;;;;;;;7.38;4.65;;;;;;;24.22;100.00;96358.84;5016688;28;20029;-81
2023/07/11 05:25:26;;;;;;;11.73;5.35;;;;;;;24.56;100.00;96347.34;5021572;28;20022;-82
2023/07/11 05:27:52;;;;;;;7.68;4.88;;;;;;;24.77;100.00;96343.88;5021384;28;20036;-82
2023/07/11 05:30:17;;;;;;;8.65;5.18;;;;;;;25.16;99.27;96339.34;5026603;28;20717;-82
2023/07/11 05:32:52;;;;;;;8.60;5.38;;;;;;;24.98;100.00;96333.41;5027898;28;20788;-82
2023/07/11 05:35:18;;;;;;;9.68;4.90;;;;;;;24.92;100.00;96336.03;5026317;28;20148;-82
2023/07/11 05:37:43;;;;;;;8.40;4.80;;;;;;;25.56;94.76;96338.25;5008526;28;20021;-82
2023/07/11 05:40:09;;;;;;;9.65;5.40;;;;;;;25.91;96.29;96331.63;5023151;28;20062;-82
2023/07/11 05:42:43;;;;;;;11.13;5.15;;;;;;;26.16;94.86;96332.97;5020272;28;20052;-82
2023/07/11 05:45:09;;;;;;;9.15;4.75;;;;;;;26.19;90.18;96322.47;5013154;28;20026;-83
2023/07/11 05:47:34;;;;;;;8.73;4.57;;;;;;;26.38;87.77;96325.59;5020469;28;20025;-82
2023/07/11 05:50:00;;;;;;;7.32;4.20;;;;;;;26.67;87.51;96318.03;5012029;28;20026;-82
2023/07/11 05:52:25;;;;;;;6.40;4.45;;;;;;;26.92;86.31;96322.75;5017997;28;20083;-82
2023/07/11 05:54:52;;;;;;;7.68;4.97;;;;;;;27.35;82.52;96322.75;5017553;28;20033;-82
2023/07/11 05:57:18;;;;;;;9.75;5.45;;;;;;;27.33;79.98;96314.09;5019058;28;20108;-82
2023/07/11 05:59:45;;;;;;;9.85;4.05;;;;;;;27.66;73.95;96316.34;5018136;28;20032;-82
2023/07/11 06:02:11;;;;;;;8.45;4.85;;;;;;;27.93;70.71;96309.97;5018509;28;20033;-82
2023/07/11 06:04:44;;;;;;;6.85;4.38;;;;;;;28.35;69.17;96314.34;5018180;28;20085;-82
2023/07/11 06:07:11;;;;;;;10.00;4.68;;;;;;;28.18;70.73;96318.13;5046302;28;20029;-83
2023/07/11 06:09:36;;;;;;;7.68;4.30;;;;;;;28.40;70.09;96320.59;5018482;28;20040;-82
2023/07/11 06:12:02;;;;;;;7.03;4.63;;;;;;;29.01;65.84;96317.03;5013619;28;20053;-83
2023/07/11 06:14:28;;;;;;;7.75;4.68;;;;;;;29.03;66.53;96314.03;5029159;28;20033;-82
2023/07/11 06:16:56;;;;;;;8.50;4.63;;;;;;;29.60;60.54;96310.88;5016678;28;20032;-81
2023/07/11 06:19:22;;;;;;;8.93;4.60;;;;;;;29.72;61.48;96310.56;5011011;28;20159;-82
2023/07/11 06:21:49;;;;;;;8.82;5.50;;;;;;;29.97;61.22;96304.16;5035745;28;20021;-82
2023/07/11 06:24:15;;;;;;;8.70;4.68;;;;;;;30.28;59.17;96309.38;5016790;28;20025;-81
2023/07/11 06:26:41;;;;;;;6.43;4.20;;;;;;;30.78;56.43;96304.63;5019726;28;20047;-82
2023/07/11 06:29:06;;;;;;;7.97;3.95;;;;;;;30.48;55.04;96302.97;5030063;28;20091;-82
2023/07/11 06:31:32;;;;;;;7.50;4.60;;;;;;;30.80;52.73;96302.44;5033684;28;20033;-82
2023/07/11 06:33:58;;;;;;;10.90;4.68;;;;;;;31.11;51.78;96300.22;5038495;28;20039;-82
2023/07/11 06:36:26;;;;;;;7.50;4.25;;;;;;;30.25;52.95;96304.56;5026543;28;20123;-82
2023/07/11 06:38:52;;;;;;;7.95;4.30;;;;;;;30.76;52.69;96298.69;5047240;28;20111;-82
2023/07/11 06:41:17;;;;;;;6.95;4.70;;;;;;;31.69;50.71;96308.25;5012175;28;20025;-82
2023/07/11 06:43:43;;;;;;;8.10;4.55;;;;;;;31.63;49.45;96306.69;5005015;28;20028;-82
2023/07/11 06:46:43;;;;;;;6.93;4.00;;;;;;;31.92;48.22;96306.56;5001913;28;20100;-82
2023/07/11 06:49:11;;;;;;;6.30;4.32;;;;;;;31.67;43.03;96309.63;5030497;28;20588;-82
2023/07/11 06:51:36;;;;;;;7.28;4.28;;;;;;;32.29;40.33;96309.56;5022646;28;20017;-82
2023/07/11 06:54:02;;;;;;;6.25;4.18;;;;;;;32.09;39.34;96308.81;5044177;28;20048;-82
2023/07/11 06:56:32;;;;;;;6.13;4.25;;;;;;;31.85;40.08;96316.19;5033523;28;20029;-82
2023/07/11 06:58:58;;;;;;;6.75;4.03;;;;;;;31.33;40.89;96315.22;5050664;28;20009;-82
2023/07/11 07:01:24;;;;;;;12.27;4.38;;;;;;;31.53;40.55;96314.97;5012107;28;20025;-82
2023/07/11 07:03:50;;;;;;;6.68;3.42;;;;;;;32.62;39.01;96308.50;5014105;28;20029;-82
2023/07/11 07:06:25;;;;;;;8.00;3.83;;;;;;;31.94;38.96;96314.44;5036859;28;20017;-82
2023/07/11 07:08:50;;;;;;;8.10;3.92;;;;;;;32.60;38.70;96302.56;5033272;28;20029;-82
2023/07/11 07:11:16;;;;;;;6.20;3.85;;;;;;;33.68;36.83;96300.53;5027905;28;20028;-82
2023/07/11 07:13:43;;;;;;;6.88;4.10;;;;;;;33.97;36.52;96292.78;5008979;28;20029;-82
2023/07/11 07:16:09;;;;;;;7.03;4.05;;;;;;;33.24;36.93;96288.34;5013509;28;20020;-82
2023/07/11 07:18:35;;;;;;;8.05;4.38;;;;;;;33.76;36.08;96291.63;5027946;28;20043;-82
2023/07/11 07:21:04;;;;;;;7.10;4.22;;;;;;;32.75;37.35;96292.50;5017284;28;20021;-82
2023/07/11 07:23:33;;;;;;;7.07;4.07;;;;;;;34.48;35.14;96279.88;5015625;28;20045;-83
2023/07/11 07:26:00;;;;;;;7.45;3.70;;;;;;;33.30;35.87;96284.38;5032402;28;20040;-83
2023/07/11 07:28:28;;;;;;;9.23;4.28;;;;;;;33.27;36.42;96282.28;5013095;28;20106;-82
2023/07/11 07:30:55;;;;;;;8.00;4.50;;;;;;;33.13;36.25;96284.19;5016989;28;20098;-82
2023/07/11 07:33:25;;;;;;;8.35;3.88;;;;;;;33.69;36.15;96283.06;5010741;28;20027;-82
2023/07/11 07:36:01;;;;;;;8.23;3.80;;;;;;;34.30;34.60;96281.66;5022731;28;20435;-82
2023/07/11 07:38:28;;;;;;;8.90;3.88;;;;;;;33.95;34.84;96273.19;5020448;28;20489;-82
2023/07/11 07:40:54;;;;;;;7.18;3.88;;;;;;;34.25;34.79;96281.78;5019059;28;20028;-82
2023/07/11 07:43:20;;;;;;;7.97;4.32;;;;;;;34.76;33.84;96271.53;5023752;28;20187;-81
2023/07/11 07:45:54;;;;;;;4.95;3.42;;;;;;;34.47;34.34;96279.06;5022514;28;20492;-82
2023/07/11 07:48:21;;;;;;;6.07;3.90;;;;;;;34.61;34.19;96275.44;5015007;28;20024;-82
2023/07/11 07:50:47;;;;;;;6.53;3.75;;;;;;;33.44;35.30;96274.28;5026809;28;20029;-81
2023/07/11 07:53:28;;;;;;;7.18;4.03;;;;;;;35.35;33.42;96272.13;5015699;28;20048;-81
2023/07/11 07:56:13;;;;;;;5.05;3.80;;;;;;;34.43;33.75;96280.78;5034024;28;20036;-81
2023/07/11 07:58:39;;;;;;;8.25;3.92;;;;;;;34.12;34.21;96271.75;5023830;28;20033;-83
2023/07/11 08:01:05;;;;;;;5.15;3.58;;;;;;;34.15;34.58;96266.47;5031385;28;21374;-82
2023/07/11 08:03:32;;;;;;;7.05;4.03;;;;;;;34.47;34.42;96270.88;5022314;28;20036;-82
2023/07/11 08:05:59;;;;;;;10.25;3.97;;;;;;;35.54;33.25;96260.91;5042900;28;20025;-82
2023/07/11 08:08:25;;;;;;;7.07;4.00;;;;;;;34.68;33.69;96260.25;5013459;28;20017;-81
2023/07/11 08:10:50;;;;;;;13.60;4.40;;;;;;;34.56;34.03;96259.22;5018660;28;20035;-82
2023/07/11 08:13:16;;;;;;;7.95;4.20;;;;;;;35.13;33.92;96257.41;5008338;28;20024;-81
2023/07/11 08:15:47;;;;;;;7.38;3.90;;;;;;;35.67;33.49;96261.91;5020376;28;20107;-81
2023/07/11 08:18:13;;;;;;;4.72;3.55;;;;;;;36.08;32.44;96258.72;5029093;28;20025;-81
2023/07/11 08:20:39;;;;;;;7.32;3.90;;;;;;;36.69;32.23;96254.00;5025265;28;20030;-81
2023/07/11 08:23:05;;;;;;;6.28;3.80;;;;;;;35.77;32.43;96248.72;5032362;28;20037;-81
2023/07/11 08:25:32;;;;;;;6.13;3.70;;;;;;;36.23;32.28;96243.75;5007350;28;20029;-81
2023/07/11 08:27:58;;;;;;;7.45;3.72;;;;;;;36.34;32.70;96239.53;5031043;28;20025;-81
2023/07/11 08:30:23;;;;;;;6.38;3.92;;;;;;;36.72;32.34;96239.63;5011229;28;20518;-81
2023/07/11 08:32:49;;;;;;;6.18;4.18;;;;;;;37.22;32.02;96236.19;5011685;28;20399;-81
2023/07/11 08:35:14;;;;;;;7.50;4.32;;;;;;;36.79;32.03;96230.91;5033092;28;20024;-80
2023/07/11 08:37:40;;;;;;;7.43;3.97;;;;;;;37.22;31.53;96225.22;5031937;28;20021;-81
2023/07/11 08:40:09;;;;;;;10.85;4.40;;;;;;;37.59;31.65;96233.72;5027214;28;20483;-81
2023/07/11 08:42:40;;;;;;;9.63;4.75;;;;;;;36.99;32.73;96237.59;5019777;28;20032;-81
2023/07/11 08:45:35;;;;;;;8.50;4.47;;;;;;;37.14;32.88;96222.53;5026879;28;20108;-81
2023/07/11 08:48:09;;;;;;;7.47;4.95;;;;;;;37.10;33.03;96225.16;5021193;28;20439;-81
2023/07/11 08:50:47;;;;;;;8.88;4.63;;;;;;;38.16;32.28;96216.69;5023121;28;20045;-82
2023/07/11 08:53:17;;;;;;;10.57;4.82;;;;;;;39.25;30.13;96214.47;5024323;28;20032;-81
2023/07/11 08:55:48;;;;;;;7.28;4.60;;;;;;;38.76;30.50;96225.41;5035310;28;20024;-81
2023/07/11 08:58:43;;;;;;;6.73;4.87;;;;;;;39.32;29.86;96206.47;5035266;28;20032;-81
2023/07/11 09:01:36;;;;;;;7.55;4.85;;;;;;;39.72;29.69;96210.44;5015858;28;20460;-94
2023/07/11 09:04:04;;;;;;;10.93;5.00;;;;;;;41.04;28.72;96202.22;5029383;28;20083;-81
2023/07/11 09:06:37;;;;;;;8.35;5.00;;;;;;;41.39;27.86;96196.72;5035866;28;20021;-81
2023/07/11 09:09:04;;;;;;;8.73;5.03;;;;;;;39.99;29.30;96206.09;5027102;28;20029;-81
2023/07/11 09:12:07;;;;;;;8.18;4.88;;;;;;;40.13;29.61;96205.69;5011919;28;20023;-81
2023/07/11 09:15:04;;;;;;;12.00;5.78;;;;;;;39.62;30.35;96186.13;5027071;28;20121;-81
2023/07/11 09:17:58;;;;;;;7.57;5.07;;;;;;;38.87;31.24;96187.34;5008904;28;20025;-81
2023/07/11 09:20:39;;;;;;;9.20;4.50;;;;;;;40.76;29.27;96186.53;5009514;28;20053;-81
2023/07/11 09:23:13;;;;;;;9.82;5.38;;;;;;;39.17;30.63;96184.31;5009113;28;20070;-82
2023/07/11 09:25:43;;;;;;;7.63;5.05;;;;;;;39.70;30.36;96185.16;5012582;28;20091;-81
2023/07/11 09:28:20;;;;;;;5.95;4.80;;;;;;;38.54;31.45;96181.91;5010986;28;20021;-81
2023/07/11 09:31:00;;;;;;;9.13;5.30;;;;;;;38.65;31.47;96181.09;5024002;28;20034;-81
2023/07/11 09:33:54;;;;;;;7.45;5.15;;;;;;;41.32;28.96;96174.50;5016426;28;20029;-81
2023/07/11 09:36:30;;;;;;;7.30;5.28;;;;;;;40.75;31.20;96173.94;5029987;28;20032;-81
2023/07/11 09:39:12;;;;;;;7.45;5.82;;;;;;;41.46;30.91;96163.78;5018853;28;20474;-81
2023/07/11 09:41:45;;;;;;;;;;;;;;;40.35;31.39;96169.34;5016345;28;20029;-81
2023/07/11 09:44:11;;;;;;;9.55;5.40;;;;;;;40.35;32.04;96166.59;5031776;28;20477;-80
2023/07/11 09:46:37;;;;;;;11.07;5.18;;;;;;;39.71;32.87;96167.56;5024997;28;20029;-81
2023/07/11 09:49:07;;;;;;;8.00;4.97;;;;;;;38.95;33.57;96172.66;5018563;28;20040;-81
2023/07/11 09:51:52;;;;;;;8.23;5.63;;;;;;;40.36;32.10;96159.13;5020834;28;20111;-81
2023/07/11 09:54:19;;;;;;;7.57;5.25;;;;;;;39.52;32.98;96160.69;5007188;28;20487;-81
2023/07/11 09:56:47;;;;;;;9.02;5.43;;;;;;;40.72;31.21;96149.81;5027676;28;20037;-81
2023/07/11 09:59:14;;;;;;;9.32;5.20;;;;;;;41.06;30.21;96150.25;5023257;28;20717;-81
2023/07/11 10:01:40;;;;;;;8.65;4.70;;;;;;;42.72;28.84;96148.47;5003286;28;20034;-81
2023/07/11 10:04:09;;;;;;;8.32;5.60;;;;;;;40.76;30.08;96147.94;5025177;28;20056;-81
2023/07/11 10:06:51;;;;;;;7.95;5.65;;;;;;;40.99;29.46;96140.63;5014351;28;20032;-81
2023/07/11 10:09:32;;;;;;;6.78;4.75;;;;;;;42.12;29.55;96134.34;5014501;28;20021;-82
2023/07/11 10:12:12;;;;;;;7.28;5.05;;;;;;;41.86;28.70;96137.81;5007816;28;20087;-80
2023/07/11 10:14:47;;;;;;;7.75;5.30;;;;;;;41.52;29.52;96134.75;5008334;28;20552;-80
2023/07/11 10:17:34;;;;;;;8.13;4.88;;;;;;;40.49;30.47;96139.38;5010508;28;20022;-81
2023/07/11 10:20:02;;;;;;;11.05;5.90;;;;;;;39.56;31.06;96136.81;5012711;28;20079;-81
2023/07/11 10:22:30;;;;;;;8.90;5.47;;;;;;;38.97;32.49;96131.88;5015670;28;20029;-81
2023/07/11 10:25:13;;;;;;;9.32;5.55;;;;;;;39.04;31.69;96126.59;5025979;28;20431;-81
2023/07/11 10:27:42;;;;;;;7.78;5.05;;;;;;;38.99;32.11;96120.53;5029517;28;20364;-81
2023/07/11 10:30:18;;;;;;;8.00;5.57;;;;;;;39.80;30.65;96127.69;5006741;28;20079;-80
2023/07/11 10:33:00;;;;;;;8.98;5.63;;;;;;;39.86;30.37;96122.72;5008816;28;20087;-81
2023/07/11 10:35:26;;;;;;;8.00;5.63;;;;;;;38.84;31.40;96116.56;5010158;28;20025;-81
2023/07/11 10:38:00;;;;;;;8.32;5.90;;;;;;;37.50;33.23;96109.56;5020152;28;20372;-81
2023/07/11 10:40:34;;;;;;;9.75;6.38;;;;;;;38.07;31.67;96110.81;5032947;28;20021;-82
2023/07/11 10:43:13;;;;;;;8.65;6.28;;;;;;;38.40;31.74;96113.53;5028036;28;20048;-82
2023/07/11 10:45:47;;;;;;;8.38;5.70;;;;;;;38.17;32.80;96111.19;5016863;28;20029;-82
2023/07/11 10:48:19;;;;;;;9.48;5.93;;;;;;;38.29;31.93;96107.63;5025396;28;20048;-81
2023/07/11 10:50:49;;;;;;;7.68;6.22;;;;;;;38.26;31.93;96104.78;5028652;28;20056;-86
2023/07/11 10:53:21;;;;;;;8.85;6.80;;;;;;;39.80;30.39;96096.59;5026745;28;20033;-81
2023/07/11 10:55:56;;;;;;;8.30;6.53;;;;;;;40.16;30.32;96089.31;5014899;28;20037;-82
2023/07/11 10:58:24;;;;;;;8.82;6.10;;;;;;;41.86;28.53;96088.09;5027225;28;20078;-81
2023/07/11 11:01:09;;;;;;;7.60;5.55;;;;;;;42.15;28.15;96081.13;5016394;28;20024;-82
2023/07/11 11:03:42;;;;;;;8.55;6.30;;;;;;;40.66;28.14;96080.34;5006386;28;20769;-82
2023/07/11 11:06:45;;;;;;;9.23;5.75;;;;;;;41.72;28.41;96085.84;5012558;28;20033;-81
2023/07/11 11:09:35;;;;;;;9.48;6.60;;;;;;;41.03;28.40;96084.75;5021193;28;20120;-81
2023/07/11 11:15:37;;;;;;;9.07;6.13;;;;;;;39.28;28.86;96075.47;5025599;28;20040;-81
2023/07/11 11:18:27;;;;;;;8.73;6.20;;;;;;;39.78;28.57;96060.38;5030890;28;20020;-82
2023/07/11 11:21:20;;;;;;;9.52;6.00;;;;;;;39.79;29.38;96068.28;5010695;28;20025;-81
2023/07/11 11:24:01;;;;;;;9.63;5.82;;;;;;;40.60;28.91;96065.25;5032177;28;20100;-82
2023/07/11 11:26:46;;;;;;;8.52;5.85;;;;;;;40.66;28.27;96055.53;5010990;28;20036;-81
2023/07/11 11:29:41;;;;;;;8.55;5.43;;;;;;;42.36;26.99;96048.34;5021423;28;20112;-82
2023/07/11 11:32:09;;;;;;;8.35;5.55;;;;;;;42.44;26.53;96045.72;5007681;28;20029;-82
2023/07/11 11:34:52;;;;;;;8.20;5.32;;;;;;;42.19;27.25;96048.84;5019413;28;20551;-82
2023/07/11 11:37:17;;;;;;;10.57;5.68;;;;;;;42.18;27.07;96047.22;5017549;28;20060;-82
2023/07/11 11:40:09;;;;;;;7.65;5.65;;;;;;;41.64;27.41;96037.16;5016442;28;20021;-82
2023/07/11 11:42:42;;;;;;;10.38;5.35;;;;;;;41.87;27.65;96032.50;5003442;28;20033;-82
2023/07/11 11:45:19;;;;;;;8.85;5.20;;;;;;;41.86;27.34;96028.13;5016618;28;20094;-82